Time;durP1;ratioP1;P1;durP2;ratioP2;P2;SDS_P1;SDS_P2;PMS_P1;PMS_P2;Temp;Humidity;BMP_temperature;BMP_pressure;BME280_temperature;BME280_humidity;BME280_pressure;Samples;Min_cycle;Max_cycle;Signal;HPM_P1;HPM_P2
2023/07/27 00:01:43;;;;;;;;;;;17.50;57.30;;;;;;5035033;28;19909;-69
2023/07/27 00:04:09;;;;;;;;;;;17.60;57.20;;;;;;5035070;28;19964;-69
2023/07/27 00:06:34;;;;;;;;;;;17.60;57.20;;;;;;5017233;28;19920;-68
2023/07/27 00:09:00;;;;;;;;;;;17.70;57.20;;;;;;5034950;28;19948;-69
2023/07/27 00:11:26;;;;;;;;;;;17.70;57.00;;;;;;5034915;28;20292;-69
2023/07/27 00:13:51;;;;;;;;;;;17.80;56.80;;;;;;5034972;28;19909;-69
2023/07/27 00:16:17;;;;;;;;;;;17.80;56.60;;;;;;5034918;28;19910;-68
2023/07/27 00:18:42;;;;;;;;;;;17.90;56.60;;;;;;5034820;28;19984;-69
2023/07/27 00:21:08;;;;;;;;;;;17.90;56.50;;;;;;5034494;28;20372;-69
2023/07/27 00:23:33;;;;;;;;;;;18.00;56.40;;;;;;5034417;28;19915;-68
2023/07/27 00:25:58;;;;;;;;;;;18.00;56.20;;;;;;5034582;28;19917;-69
2023/07/27 00:28:24;;;;;;;;;;;18.10;56.10;;;;;;5016922;28;19910;-68
2023/07/27 00:30:53;;;;;;;;;;;18.10;56.10;;;;;;5034913;28;19918;-69
2023/07/27 00:33:18;;;;;;;;;;;18.10;56.00;;;;;;5034296;28;20365;-69
2023/07/27 00:35:52;;;;;;;;;;;18.00;56.10;;;;;;5034867;28;19917;-69
2023/07/27 00:38:18;;;;;;;;;;;18.10;56.20;;;;;;5034250;28;19917;-68
2023/07/27 00:40:46;;;;;;;;;;;18.10;56.20;;;;;;5034583;28;19921;-69
2023/07/27 00:43:11;;;;;;;;;;;18.10;56.10;;;;;;5034126;28;19909;-69
2023/07/27 00:45:36;;;;;;;;;;;18.20;56.10;;;;;;5054100;28;19970;-69
2023/07/27 00:48:04;;;;;;;;;;;18.20;56.10;;;;;;5053961;28;19917;-68
2023/07/27 00:50:30;;;;;;;;;;;18.10;56.10;;;;;;5047601;28;20352;-69
2023/07/27 00:52:56;;;;;;;;;;;18.10;56.10;;;;;;5034235;28;19913;-68
2023/07/27 00:55:21;;;;;;;;;;;18.20;56.10;;;;;;5034316;28;20366;-69
2023/07/27 00:57:47;;;;;;;;;;;18.10;56.10;;;;;;5034047;28;19909;-68
2023/07/27 01:00:14;;;;;;;;;;;18.10;56.00;;;;;;5034442;28;19921;-74
2023/07/27 01:02:40;;;;;;;;;;;18.10;55.90;;;;;;5016165;28;19909;-76
2023/07/27 01:05:05;;;;;;;;;;;18.00;55.80;;;;;;5033921;28;19929;-74
2023/07/27 01:07:31;;;;;;;;;;;17.90;55.70;;;;;;5033932;28;20293;-75
2023/07/27 01:09:56;;;;;;;;;;;17.90;55.90;;;;;;5033877;28;19957;-75
2023/07/27 01:12:45;;;;;;;;;;;17.80;56.10;;;;;;5033100;28;20384;-74
2023/07/27 01:15:12;;;;;;;;;;;17.80;56.10;;;;;;5010519;28;19965;-75
2023/07/27 01:17:54;;;;;;;;;;;17.80;56.10;;;;;;5033549;28;19920;-75
2023/07/27 01:20:26;;;;;;;;;;;17.70;56.30;;;;;;5033718;28;19921;-74
2023/07/27 01:23:18;;;;;;;;;;;17.70;56.60;;;;;;5033360;28;19909;-77
2023/07/27 01:26:02;;;;;;;;;;;17.80;57.10;;;;;;5033817;28;20363;-74
2023/07/27 01:28:46;;;;;;;;;;;17.70;57.20;;;;;;5033317;28;20411;-75
2023/07/27 01:31:21;;;;;;;;;;;17.80;57.30;;;;;;5033270;28;20349;-74
2023/07/27 01:33:49;;;;;;;;;;;17.80;57.50;;;;;;5033261;28;19959;-74
2023/07/27 01:36:18;;;;;;;;;;;17.80;57.50;;;;;;5033139;28;19910;-75
2023/07/27 01:38:45;;;;;;;;;;;17.90;57.50;;;;;;5033045;28;20396;-75
2023/07/27 01:41:11;;;;;;;;;;;18.00;57.30;;;;;;5033014;28;19913;-75
2023/07/27 01:43:38;;;;;;;;;;;18.00;57.20;;;;;;5036111;28;19916;-76
2023/07/27 01:46:05;;;;;;;;;;;18.00;57.20;;;;;;5052940;28;19940;-76
2023/07/27 01:48:31;;;;;;;;;;;18.00;57.30;;;;;;5052876;28;19999;-76
2023/07/27 01:50:57;;;;;;;;;;;18.10;57.30;;;;;;5042688;28;19944;-75
2023/07/27 01:53:23;;;;;;;;;;;18.20;57.30;;;;;;5032800;28;19917;-75
2023/07/27 01:55:49;;;;;;;;;;;18.20;57.20;;;;;;5033257;28;19960;-75
2023/07/27 01:58:15;;;;;;;;;;;18.30;57.00;;;;;;5032680;28;19971;-75
2023/07/27 02:00:41;;;;;;;;;;;18.30;56.80;;;;;;5033319;28;20376;-75
2023/07/27 02:03:07;;;;;;;;;;;18.20;56.60;;;;;;5014858;28;20411;-75
2023/07/27 02:05:32;;;;;;;;;;;18.30;56.60;;;;;;5033014;28;19916;-75
2023/07/27 02:07:58;;;;;;;;;;;18.30;56.80;;;;;;5032698;28;19964;-76
2023/07/27 02:10:24;;;;;;;;;;;18.30;56.60;;;;;;5032905;28;19991;-76
2023/07/27 02:13:08;;;;;;;;;;;18.20;56.50;;;;;;5032543;28;19909;-76
2023/07/27 02:15:39;;;;;;;;;;;18.20;56.40;;;;;;5032885;28;19914;-76
2023/07/27 02:18:08;;;;;;;;;;;18.20;56.80;;;;;;5032491;28;19959;-76
2023/07/27 02:20:35;;;;;;;;;;;18.20;56.50;;;;;;5032712;28;19917;-77
2023/07/27 02:23:01;;;;;;;;;;;18.30;56.50;;;;;;5031438;28;19913;-76
2023/07/27 02:25:27;;;;;;;;;;;18.30;56.60;;;;;;5032532;28;19921;-76
2023/07/27 02:27:52;;;;;;;;;;;18.20;56.60;;;;;;5032308;28;20377;-77
2023/07/27 02:30:18;;;;;;;;;;;18.30;56.60;;;;;;5032652;28;20379;-76
2023/07/27 02:32:43;;;;;;;;;;;18.30;56.60;;;;;;5032172;28;19920;-76
2023/07/27 02:35:09;;;;;;;;;;;18.30;56.70;;;;;;5032442;28;19913;-76
2023/07/27 02:37:34;;;;;;;;;;;18.30;56.60;;;;;;5031989;28;20395;-77
2023/07/27 02:39:59;;;;;;;;;;;18.30;56.60;;;;;;5032268;28;19924;-76
2023/07/27 02:42:25;;;;;;;;;;;18.30;56.70;;;;;;5031898;28;19928;-75
2023/07/27 02:44:50;;;;;;;;;;;18.40;56.70;;;;;;5045418;28;19992;-77
2023/07/27 02:47:16;;;;;;;;;;;18.30;56.60;;;;;;5051721;28;19913;-76
2023/07/27 02:49:41;;;;;;;;;;;18.40;56.70;;;;;;5051710;28;19928;-76
2023/07/27 02:52:07;;;;;;;;;;;18.40;56.70;;;;;;5031774;28;19913;-76
2023/07/27 02:54:32;;;;;;;;;;;18.40;56.70;;;;;;5029242;28;19921;-76
2023/07/27 02:56:58;;;;;;;;;;;18.40;56.70;;;;;;5016749;28;19928;-76
2023/07/27 02:59:23;;;;;;;;;;;18.40;56.80;;;;;;5026187;28;20296;-76
2023/07/27 03:01:49;;;;;;;;;;;18.40;57.10;;;;;;5030959;28;19917;-75
2023/07/27 03:04:14;;;;;;;;;;;18.40;57.10;;;;;;5030834;28;19921;-75
2023/07/27 03:06:40;;;;;;;;;;;18.40;56.80;;;;;;5031724;28;20011;-76
2023/07/27 03:09:05;;;;;;;;;;;18.40;56.90;;;;;;5031686;28;20254;-75
2023/07/27 03:11:31;;;;;;;;;;;18.40;56.90;;;;;;5031713;28;19920;-73
2023/07/27 03:14:00;;;;;;;;;;;18.40;57.00;;;;;;5031915;28;19921;-76
2023/07/27 03:16:25;;;;;;;;;;;18.30;56.90;;;;;;5031519;28;20477;-76
2023/07/27 03:18:51;;;;;;;;;;;18.40;57.00;;;;;;5031571;28;20003;-76
2023/07/27 03:21:16;;;;;;;;;;;18.40;57.10;;;;;;5023068;28;19921;-75
2023/07/27 03:23:42;;;;;;;;;;;18.40;57.20;;;;;;5011748;28;19909;-76
2023/07/27 03:26:11;;;;;;;;;;;18.40;57.20;;;;;;5011777;28;20397;-75
2023/07/27 03:28:36;;;;;;;;;;;18.50;57.10;;;;;;5011817;28;20335;-76
2023/07/27 03:31:02;;;;;;;;;;;18.50;57.30;;;;;;5011841;28;20012;-76
2023/07/27 03:33:27;;;;;;;;;;;18.50;57.20;;;;;;5011644;28;19909;-77
2023/07/27 03:35:53;;;;;;;;;;;18.60;57.40;;;;;;5016005;28;20284;-76
2023/07/27 03:38:18;;;;;;;;;;;18.60;57.20;;;;;;5015661;28;19924;-76
2023/07/27 03:40:44;;;;;;;;;;;18.70;57.20;;;;;;5016023;28;20027;-76
2023/07/27 03:43:10;;;;;;;;;;;18.70;57.30;;;;;;4997948;28;19920;-76
2023/07/27 03:45:35;;;;;;;;;;;18.70;57.30;;;;;;5034482;28;19940;-76
2023/07/27 03:48:01;;;;;;;;;;;18.80;57.20;;;;;;5029065;28;19917;-77
2023/07/27 03:50:26;;;;;;;;;;;18.80;57.10;;;;;;5026053;28;20250;-77
2023/07/27 03:52:51;;;;;;;;;;;18.80;57.00;;;;;;5020340;28;19913;-76
2023/07/27 03:55:18;;;;;;;;;;;18.90;56.90;;;;;;5031893;28;19924;-77
2023/07/27 03:57:45;;;;;;;;;;;19.00;56.90;;;;;;5022765;28;19932;-76
2023/07/27 04:00:11;;;;;;;;;;;19.00;56.70;;;;;;5026987;28;20008;-76
2023/07/27 04:02:36;;;;;;;;;;;19.10;56.70;;;;;;5027269;28;20427;-77
2023/07/27 04:05:02;;;;;;;;;;;19.10;56.70;;;;;;5031071;28;20012;-77
2023/07/27 04:07:27;;;;;;;;;;;19.20;56.60;;;;;;5034848;28;19913;-76
2023/07/27 04:09:53;;;;;;;;;;;19.20;56.60;;;;;;5035143;28;19918;-76
2023/07/27 04:12:18;;;;;;;;;;;19.30;56.60;;;;;;5034719;28;19913;-76
2023/07/27 04:14:44;;;;;;;;;;;19.40;56.50;;;;;;5034980;28;20039;-76
2023/07/27 04:17:09;;;;;;;;;;;19.50;56.30;;;;;;5034945;28;19913;-76
2023/07/27 04:19:35;;;;;;;;;;;19.50;56.00;;;;;;5023089;28;19937;-76
2023/07/27 04:22:01;;;;;;;;;;;19.70;55.80;;;;;;5027149;28;19924;-76
2023/07/27 04:24:26;;;;;;;;;;;19.70;55.70;;;;;;5032932;28;19918;-76
2023/07/27 04:26:52;;;;;;;;;;;19.80;55.40;;;;;;5034115;28;20012;-76
2023/07/27 04:29:17;;;;;;;;;;;19.80;55.10;;;;;;5034297;28;19917;-76
2023/07/27 04:31:43;;;;;;;;;;;19.90;55.00;;;;;;5033176;28;19913;-74
2023/07/27 04:34:08;;;;;;;;;;;20.00;54.80;;;;;;5034700;28;19961;-76
2023/07/27 04:36:34;;;;;;;;;;;20.10;54.50;;;;;;5034412;28;19916;-76
2023/07/27 04:38:59;;;;;;;;;;;20.20;54.50;;;;;;5033300;28;19968;-77
2023/07/27 04:41:25;;;;;;;;;;;20.20;54.40;;;;;;5032208;28;20688;-75
2023/07/27 04:43:50;;;;;;;;;;;20.20;54.40;;;;;;5038981;28;19908;-77
2023/07/27 04:46:15;;;;;;;;;;;20.30;54.30;;;;;;5052906;28;20377;-76
2023/07/27 04:48:41;;;;;;;;;;;20.30;54.20;;;;;;5019675;28;19913;-75
2023/07/27 04:51:06;;;;;;;;;;;20.40;54.10;;;;;;5033893;28;20074;-75
2023/07/27 04:53:32;;;;;;;;;;;20.40;54.00;;;;;;5033015;28;19917;-75
2023/07/27 04:55:57;;;;;;;;;;;20.50;53.90;;;;;;5034445;28;19946;-76
2023/07/27 04:58:23;;;;;;;;;;;20.50;54.00;;;;;;5032567;28;19920;-75
2023/07/27 05:00:54;;;;;;;;;;;20.50;54.10;;;;;;5030275;28;20361;-75
2023/07/27 05:03:20;;;;;;;;;;;20.50;54.30;;;;;;5024766;28;19932;-75
2023/07/27 05:05:45;;;;;;;;;;;20.50;54.40;;;;;;5018183;28;19921;-75
2023/07/27 05:08:11;;;;;;;;;;;20.40;54.60;;;;;;5032296;28;20366;-74
2023/07/27 05:10:40;;;;;;;;;;;20.40;54.90;;;;;;5033744;28;20007;-76
2023/07/27 05:13:06;;;;;;;;;;;20.30;55.40;;;;;;5031353;28;20383;-73
2023/07/27 05:15:31;;;;;;;;;;;20.30;55.70;;;;;;5034100;28;19960;-75
2023/07/27 05:17:56;;;;;;;;;;;20.20;56.10;;;;;;5031934;28;19909;-76
2023/07/27 05:20:22;;;;;;;;;;;20.20;56.30;;;;;;5032011;28;20364;-75
2023/07/27 05:22:47;;;;;;;;;;;20.10;56.60;;;;;;5032693;28;19960;-76
2023/07/27 05:25:13;;;;;;;;;;;20.00;57.10;;;;;;5030612;28;19921;-76
2023/07/27 05:27:39;;;;;;;;;;;20.00;57.60;;;;;;5031707;28;19921;-76
2023/07/27 05:30:05;;;;;;;;;;;19.90;57.90;;;;;;5033653;28;20003;-75
2023/07/27 05:32:31;;;;;;;;;;;19.80;58.60;;;;;;5032326;28;19913;-75
2023/07/27 05:34:56;;;;;;;;;;;19.80;59.40;;;;;;5032008;28;19963;-74
2023/07/27 05:37:22;;;;;;;;;;;19.70;60.20;;;;;;5032093;28;19913;-73
2023/07/27 05:39:47;;;;;;;;;;;19.70;60.90;;;;;;5031649;28;19921;-73
2023/07/27 05:42:12;;;;;;;;;;;19.70;61.60;;;;;;5033172;28;19909;-73
2023/07/27 05:44:38;;;;;;;;;;;19.70;62.10;;;;;;5044571;28;19924;-72
2023/07/27 05:47:05;;;;;;;;;;;19.70;62.70;;;;;;5052985;28;19913;-71
2023/07/27 05:49:30;;;;;;;;;;;19.60;63.30;;;;;;5052884;28;19917;-71
2023/07/27 05:51:56;;;;;;;;;;;19.50;63.80;;;;;;5052897;28;19913;-70
2023/07/27 05:54:21;;;;;;;;;;;19.60;64.50;;;;;;5053144;28;20288;-70
2023/07/27 05:56:47;;;;;;;;;;;19.50;65.20;;;;;;5026909;28;19920;-69
2023/07/27 05:59:12;;;;;;;;;;;19.50;65.60;;;;;;5032845;28;19924;-69
2023/07/27 06:01:38;;;;;;;;;;;19.50;66.00;;;;;;5031558;28;19913;-69
2023/07/27 06:04:03;;;;;;;;;;;19.50;66.50;;;;;;5028858;28;19921;-69
2023/07/27 06:06:30;;;;;;;;;;;19.50;66.70;;;;;;5033318;28;21296;-69
2023/07/27 06:08:56;;;;;;;;;;;19.50;67.30;;;;;;5032244;28;20268;-69
2023/07/27 06:11:21;;;;;;;;;;;19.60;67.50;;;;;;5040611;28;19927;-69
2023/07/27 06:13:47;;;;;;;;;;;19.70;67.90;;;;;;5052281;28;19916;-70
2023/07/27 06:16:12;;;;;;;;;;;19.60;67.90;;;;;;5032251;28;19913;-70
2023/07/27 06:18:37;;;;;;;;;;;19.70;67.90;;;;;;5024629;28;19941;-70
2023/07/27 06:21:06;;;;;;;;;;;19.60;68.10;;;;;;5014079;28;19921;-70
2023/07/27 06:23:31;;;;;;;;;;;19.70;68.20;;;;;;5048557;28;19917;-70
2023/07/27 06:25:57;;;;;;;;;;;19.70;68.20;;;;;;5052073;28;19920;-70
2023/07/27 06:28:22;;;;;;;;;;;19.70;68.10;;;;;;5051064;28;19924;-71
2023/07/27 06:30:48;;;;;;;;;;;19.70;68.30;;;;;;5052452;28;20268;-71
2023/07/27 06:33:14;;;;;;;;;;;19.70;68.30;;;;;;5048033;28;19948;-70
2023/07/27 06:35:39;;;;;;;;;;;19.70;68.30;;;;;;5050795;28;19999;-70
2023/07/27 06:38:05;;;;;;;;;;;19.70;68.20;;;;;;5051948;28;19921;-69
2023/07/27 06:40:30;;;;;;;;;;;19.70;68.40;;;;;;5040859;28;19921;-69
2023/07/27 06:42:56;;;;;;;;;;;19.80;68.60;;;;;;5032180;28;19913;-69
2023/07/27 06:45:21;;;;;;;;;;;19.80;68.80;;;;;;5049486;28;20015;-69
2023/07/27 06:47:47;;;;;;;;;;;19.80;68.70;;;;;;5032339;28;20305;-69
2023/07/27 06:50:12;;;;;;;;;;;19.80;68.90;;;;;;5032330;28;20012;-69
2023/07/27 06:52:38;;;;;;;;;;;20.00;69.00;;;;;;5031586;28;19968;-70
2023/07/27 06:55:03;;;;;;;;;;;20.00;68.80;;;;;;5037359;28;19927;-71
2023/07/27 06:57:29;;;;;;;;;;;20.10;68.90;;;;;;5050784;28;20000;-69
2023/07/27 06:59:54;;;;;;;;;;;20.10;69.00;;;;;;5031948;28;19940;-70
2023/07/27 07:02:20;;;;;;;;;;;20.10;69.00;;;;;;5048603;28;19950;-70
2023/07/27 07:04:46;;;;;;;;;;;20.20;69.00;;;;;;5051769;28;19923;-70
2023/07/27 07:07:11;;;;;;;;;;;20.20;69.10;;;;;;5049440;28;20384;-70
2023/07/27 07:09:37;;;;;;;;;;;20.30;69.40;;;;;;5045330;28;20373;-70
2023/07/27 07:12:03;;;;;;;;;;;20.40;69.30;;;;;;5032873;28;19917;-70
2023/07/27 07:14:28;;;;;;;;;;;20.50;69.30;;;;;;5051879;28;19912;-70
2023/07/27 07:16:54;;;;;;;;;;;20.50;69.10;;;;;;5048339;28;20051;-71
2023/07/27 07:19:19;;;;;;;;;;;20.50;68.90;;;;;;5051364;28;19913;-70
2023/07/27 07:21:45;;;;;;;;;;;20.50;69.00;;;;;;5049139;28;19940;-71
2023/07/27 07:24:10;;;;;;;;;;;20.60;68.90;;;;;;5051801;28;19926;-71
2023/07/27 07:26:36;;;;;;;;;;;20.60;68.60;;;;;;5051248;28;19913;-71
2023/07/27 07:29:01;;;;;;;;;;;20.60;68.60;;;;;;5048373;28;19963;-71
2023/07/27 07:31:27;;;;;;;;;;;20.60;68.90;;;;;;5051337;28;19912;-71
2023/07/27 07:33:52;;;;;;;;;;;20.70;68.80;;;;;;5049335;28;20606;-71
2023/07/27 07:36:18;;;;;;;;;;;20.70;68.80;;;;;;5051256;28;19913;-70
2023/07/27 07:38:44;;;;;;;;;;;20.70;68.70;;;;;;5049989;28;19920;-69
2023/07/27 07:41:09;;;;;;;;;;;20.60;68.60;;;;;;5037211;28;19925;-69
2023/07/27 07:43:35;;;;;;;;;;;20.60;68.60;;;;;;5034003;28;20024;-68
2023/07/27 07:46:00;;;;;;;;;;;20.50;68.80;;;;;;5040671;28;19917;-68
2023/07/27 07:48:26;;;;;;;;;;;20.50;68.80;;;;;;5031211;28;19910;-68
2023/07/27 07:50:51;;;;;;;;;;;20.40;68.90;;;;;;5033309;28;19913;-68
2023/07/27 07:53:17;;;;;;;;;;;20.30;69.20;;;;;;5051010;28;19932;-67
2023/07/27 07:55:42;;;;;;;;;;;20.20;68.90;;;;;;5051573;28;19919;-68
2023/07/27 07:58:08;;;;;;;;;;;20.10;68.90;;;;;;5025399;28;19921;-70
2023/07/27 08:00:33;;;;;;;;;;;20.00;69.20;;;;;;5031566;28;19917;-71
2023/07/27 08:02:59;;;;;;;;;;;19.90;69.50;;;;;;5029471;28;20443;-73
2023/07/27 08:05:24;;;;;;;;;;;19.80;69.80;;;;;;5030522;28;19913;-73
2023/07/27 08:07:50;;;;;;;;;;;19.80;69.80;;;;;;5050494;28;20400;-73
2023/07/27 08:10:15;;;;;;;;;;;19.70;70.00;;;;;;5051316;28;20008;-74
2023/07/27 08:12:41;;;;;;;;;;;19.70;70.30;;;;;;5048754;28;19917;-72
2023/07/27 08:15:07;;;;;;;;;;;19.70;70.30;;;;;;5051330;28;19912;-73
2023/07/27 08:17:32;;;;;;;;;;;19.60;70.30;;;;;;5048759;28;20377;-73
2023/07/27 08:19:58;;;;;;;;;;;19.60;70.30;;;;;;5051700;28;19944;-73
2023/07/27 08:22:24;;;;;;;;;;;19.60;70.50;;;;;;5054401;28;20372;-73
2023/07/27 08:24:49;;;;;;;;;;;19.60;70.90;;;;;;5052358;28;20250;-73
2023/07/27 08:27:15;;;;;;;;;;;19.60;70.90;;;;;;5036387;28;19913;-73
2023/07/27 08:29:40;;;;;;;;;;;19.70;70.90;;;;;;5033237;28;19955;-72
2023/07/27 08:32:06;;;;;;;;;;;19.70;71.00;;;;;;5036446;28;19912;-72
2023/07/27 08:34:31;;;;;;;;;;;19.70;71.10;;;;;;5052321;28;19924;-73
2023/07/27 08:36:57;;;;;;;;;;;19.70;71.10;;;;;;5053938;28;19913;-73
2023/07/27 08:39:22;;;;;;;;;;;19.70;71.10;;;;;;5050853;28;19919;-72
2023/07/27 08:41:48;;;;;;;;;;;19.70;71.10;;;;;;5053945;28;19960;-73
2023/07/27 08:44:14;;;;;;;;;;;19.70;71.10;;;;;;5051637;28;20371;-72
2023/07/27 08:46:42;;;;;;;;;;;19.60;71.10;;;;;;5033905;28;19917;-72
2023/07/27 08:49:08;;;;;;;;;;;19.60;71.20;;;;;;5033938;28;19913;-72
2023/07/27 08:51:36;;;;;;;;;;;19.50;71.40;;;;;;5032206;28;19924;-73
2023/07/27 08:54:01;;;;;;;;;;;19.70;71.40;;;;;;5033887;28;19983;-72
2023/07/27 08:56:27;;;;;;;;;;;19.60;71.00;;;;;;5033313;28;19960;-72
2023/07/27 08:58:53;;;;;;;;;;;19.50;70.90;;;;;;5041203;28;19921;-72
2023/07/27 09:01:19;;;;;;;;;;;19.50;71.10;;;;;;5031251;28;19929;-72
2023/07/27 09:03:44;;;;;;;;;;;19.50;71.40;;;;;;5033684;28;20424;-72
2023/07/27 09:06:10;;;;;;;;;;;19.40;71.20;;;;;;5042023;28;20391;-72
2023/07/27 09:08:35;;;;;;;;;;;19.50;71.50;;;;;;5053382;28;19913;-72
2023/07/27 09:11:05;;;;;;;;;;;19.50;71.70;;;;;;5051174;28;19968;-71
2023/07/27 09:13:31;;;;;;;;;;;19.50;71.90;;;;;;5053422;28;19909;-72
2023/07/27 09:15:56;;;;;;;;;;;19.60;71.80;;;;;;5053305;28;20280;-72
2023/07/27 09:18:22;;;;;;;;;;;19.60;71.90;;;;;;5051650;28;19917;-73
2023/07/27 09:20:47;;;;;;;;;;;19.70;72.00;;;;;;5054002;28;19917;-72
2023/07/27 09:23:20;;;;;;;;;;;19.80;72.10;;;;;;5041779;28;19964;-71
2023/07/27 09:25:55;;;;;;;;;;;19.80;72.10;;;;;;5033845;28;19968;-73
2023/07/27 09:28:22;;;;;;;;;;;19.90;72.00;;;;;;5034454;28;20373;-73
2023/07/27 09:30:49;;;;;;;;;;;19.90;72.20;;;;;;5035642;28;19920;-73
2023/07/27 09:33:14;;;;;;;;;;;20.10;72.60;;;;;;5052632;28;19913;-73
2023/07/27 09:35:40;;;;;;;;;;;20.20;72.30;;;;;;5050304;28;20284;-74
2023/07/27 09:38:05;;;;;;;;;;;20.30;72.30;;;;;;5053083;28;19967;-72
2023/07/27 09:40:32;;;;;;;;;;;20.30;72.20;;;;;;5050967;28;19925;-73
2023/07/27 09:42:57;;;;;;;;;;;20.30;71.90;;;;;;5052926;28;19936;-73
2023/07/27 09:45:23;;;;;;;;;;;20.30;72.10;;;;;;5053496;28;19917;-74
2023/07/27 09:47:49;;;;;;;;;;;20.40;72.00;;;;;;5051806;28;19917;-71
2023/07/27 09:50:15;;;;;;;;;;;20.50;72.20;;;;;;5052730;28;19916;-73
2023/07/27 09:52:41;;;;;;;;;;;20.50;72.40;;;;;;5050120;28;19921;-73
2023/07/27 09:55:07;;;;;;;;;;;20.70;72.50;;;;;;5052871;28;19924;-73
2023/07/27 09:57:32;;;;;;;;;;;20.90;72.90;;;;;;5038706;28;20023;-73
2023/07/27 09:59:58;;;;;;;;;;;21.00;72.80;;;;;;5032883;28;19917;-72
2023/07/27 10:02:24;;;;;;;;;;;21.20;73.00;;;;;;5030933;28;19921;-73
2023/07/27 10:04:49;;;;;;;;;;;21.30;72.90;;;;;;5033202;28;19913;-73
2023/07/27 10:07:16;;;;;;;;;;;21.40;72.30;;;;;;5033732;28;19957;-72
2023/07/27 10:09:42;;;;;;;;;;;21.50;72.00;;;;;;5052729;28;20353;-73
2023/07/27 10:12:07;;;;;;;;;;;21.50;72.40;;;;;;5052422;28;20022;-73
2023/07/27 10:14:33;;;;;;;;;;;21.70;72.50;;;;;;5051298;28;19967;-73
2023/07/27 10:16:59;;;;;;;;;;;21.70;71.80;;;;;;5052213;28;19922;-73
2023/07/27 10:19:25;;;;;;;;;;;21.70;71.20;;;;;;5050329;28;20013;-73
2023/07/27 10:21:51;;;;;;;;;;;21.60;71.30;;;;;;5052281;28;19991;-72
2023/07/27 10:24:23;;;;;;;;;;;21.60;71.40;;;;;;5048622;28;19913;-72
2023/07/27 10:26:52;;;;;;;;;;;21.60;71.30;;;;;;5032208;28;20043;-73
2023/07/27 10:29:19;;;;;;;;;;;21.60;71.50;;;;;;5041896;28;19923;-72
2023/07/27 10:31:45;;;;;;;;;;;21.50;71.20;;;;;;5052123;28;19913;-72
2023/07/27 10:34:15;;;;;;;;;;;21.60;71.10;;;;;;5040378;28;19916;-72
2023/07/27 10:36:46;;;;;;;;;;;21.60;71.70;;;;;;5032323;28;19936;-72
2023/07/27 10:39:15;;;;;;;;;;;21.60;71.70;;;;;;5031499;28;19939;-71
2023/07/27 10:41:56;;;;;;;;;;;21.70;71.40;;;;;;5051929;28;19960;-72
2023/07/27 10:44:21;;;;;;;;;;;21.70;71.60;;;;;;5051165;28;20340;-72
2023/07/27 10:46:47;;;;;;;;;;;21.70;71.60;;;;;;5036244;28;19921;-72
2023/07/27 10:49:17;;;;;;;;;;;21.70;71.80;;;;;;5032008;28;20392;-72
2023/07/27 10:51:44;;;;;;;;;;;21.80;71.90;;;;;;5034650;28;20307;-73
2023/07/27 10:54:10;;;;;;;;;;;21.90;72.10;;;;;;5051619;28;19917;-72
2023/07/27 10:56:35;;;;;;;;;;;21.90;71.80;;;;;;5046439;28;19917;-72
2023/07/27 10:59:01;;;;;;;;;;;22.00;71.80;;;;;;5045585;28;20319;-72
2023/07/27 11:01:28;;;;;;;;;;;22.00;72.00;;;;;;5051582;28;19924;-72
2023/07/27 11:03:57;;;;;;;;;;;22.10;71.90;;;;;;5048393;28;19921;-72
2023/07/27 11:06:29;;;;;;;;;;;22.10;71.80;;;;;;5051417;28;19913;-72
2023/07/27 11:08:56;;;;;;;;;;;22.20;71.90;;;;;;5051534;28;19956;-72
2023/07/27 11:11:22;;;;;;;;;;;22.20;72.00;;;;;;5031136;28;20000;-72
2023/07/27 11:13:48;;;;;;;;;;;22.30;71.90;;;;;;5031557;28;19952;-72
2023/07/27 11:16:14;;;;;;;;;;;22.30;72.30;;;;;;5038998;28;20352;-72
2023/07/27 11:18:42;;;;;;;;;;;22.50;72.40;;;;;;5051377;28;19916;-71
2023/07/27 11:21:08;;;;;;;;;;;22.60;72.10;;;;;;5033006;28;19928;-71
2023/07/27 11:23:39;;;;;;;;;;;22.60;72.40;;;;;;5031677;28;19909;-72
2023/07/27 11:26:05;;;;;;;;;;;22.60;72.30;;;;;;5047342;28;19917;-72
2023/07/27 11:28:32;;;;;;;;;;;22.80;72.00;;;;;;5051326;28;19908;-73
2023/07/27 11:30:57;;;;;;;;;;;22.80;72.10;;;;;;5047526;28;19913;-72
2023/07/27 11:33:29;;;;;;;;;;;22.80;71.80;;;;;;5051205;28;20475;-72
2023/07/27 11:35:54;;;;;;;;;;;22.80;71.70;;;;;;5051731;28;19962;-72
2023/07/27 11:38:20;;;;;;;;;;;22.90;71.80;;;;;;5031005;28;20359;-72
2023/07/27 11:40:47;;;;;;;;;;;23.00;71.90;;;;;;5031733;28;19928;-72
2023/07/27 11:43:12;;;;;;;;;;;23.00;72.10;;;;;;5039746;28;20117;-71
2023/07/27 11:45:38;;;;;;;;;;;23.10;72.00;;;;;;5049809;28;19979;-72
2023/07/27 11:48:04;;;;;;;;;;;23.00;71.60;;;;;;5046786;28;19921;-72
2023/07/27 11:50:30;;;;;;;;;;;23.00;71.50;;;;;;5051586;28;19912;-72
2023/07/27 11:52:59;;;;;;;;;;;22.90;71.00;;;;;;5048627;28;20315;-72
2023/07/27 11:55:25;;;;;;;;;;;22.90;71.90;;;;;;5052960;28;19967;-73
2023/07/27 11:57:51;;;;;;;;;;;23.00;72.00;;;;;;5050491;28;20383;-71
2023/07/27 12:00:16;;;;;;;;;;;23.10;72.30;;;;;;5055208;28;19917;-71
2023/07/27 12:02:46;;;;;;;;;;;23.20;72.30;;;;;;5048241;28;19971;-72
2023/07/27 12:05:13;;;;;;;;;;;23.30;72.30;;;;;;5035388;28;19967;-74
2023/07/27 12:07:39;;;;;;;;;;;23.40;72.70;;;;;;5034910;28;20037;-72
2023/07/27 12:10:04;;;;;;;;;;;23.50;72.20;;;;;;5049537;28;20004;-74
2023/07/27 12:12:30;;;;;;;;;;;23.60;72.10;;;;;;5054734;28;19913;-72
2023/07/27 12:14:58;;;;;;;;;;;23.70;72.60;;;;;;5053631;28;19917;-74
2023/07/27 12:17:24;;;;;;;;;;;23.70;71.50;;;;;;5054594;28;19913;-72
2023/07/27 12:19:49;;;;;;;;;;;23.70;71.50;;;;;;5054990;28;20386;-72
2023/07/27 12:22:15;;;;;;;;;;;23.60;71.00;;;;;;5051232;28;20003;-73
2023/07/27 12:24:46;;;;;;;;;;;23.50;71.70;;;;;;5054649;28;19960;-74
2023/07/27 12:27:11;;;;;;;;;;;23.50;72.00;;;;;;5038977;28;19976;-72
2023/07/27 12:29:37;;;;;;;;;;;23.60;72.10;;;;;;5034634;28;19967;-73
2023/07/27 12:32:03;;;;;;;;;;;23.50;72.00;;;;;;5054359;28;19978;-73
2023/07/27 12:34:28;;;;;;;;;;;23.60;71.90;;;;;;5041769;28;19996;-72
2023/07/27 12:36:54;;;;;;;;;;;23.60;71.50;;;;;;5034506;28;19913;-71
2023/07/27 12:39:19;;;;;;;;;;;23.60;71.70;;;;;;5032731;28;20404;-73
2023/07/27 12:41:45;;;;;;;;;;;23.60;71.70;;;;;;5014375;28;19968;-73
2023/07/27 12:44:10;;;;;;;;;;;23.60;71.50;;;;;;5026625;28;20272;-72
2023/07/27 12:46:35;;;;;;;;;;;23.70;71.80;;;;;;5033710;28;19925;-72
2023/07/27 12:49:01;;;;;;;;;;;23.70;71.40;;;;;;5031603;28;19921;-72
2023/07/27 12:51:26;;;;;;;;;;;23.70;71.40;;;;;;5034368;28;19913;-72
2023/07/27 12:53:52;;;;;;;;;;;23.70;71.70;;;;;;5034285;28;19957;-73
2023/07/27 12:56:18;;;;;;;;;;;23.70;71.80;;;;;;5013967;28;19929;-72
2023/07/27 12:58:43;;;;;;;;;;;23.70;71.30;;;;;;5033560;28;19916;-72
2023/07/27 13:01:09;;;;;;;;;;;23.70;71.50;;;;;;5033790;28;19917;-73
2023/07/27 13:03:34;;;;;;;;;;;23.60;71.20;;;;;;5042698;28;19918;-73
2023/07/27 13:06:00;;;;;;;;;;;23.50;71.90;;;;;;5053564;28;19921;-72
2023/07/27 13:08:26;;;;;;;;;;;23.70;72.10;;;;;;5053242;28;19916;-73
2023/07/27 13:10:51;;;;;;;;;;;23.70;72.10;;;;;;5037328;28;20320;-73
2023/07/27 13:13:17;;;;;;;;;;;23.80;72.50;;;;;;5040631;28;19920;-72
2023/07/27 13:15:42;;;;;;;;;;;23.80;72.10;;;;;;5054155;28;19913;-74
2023/07/27 13:18:08;;;;;;;;;;;23.80;71.70;;;;;;5034648;28;19963;-72
2023/07/27 13:20:33;;;;;;;;;;;23.80;71.90;;;;;;5053835;28;19916;-73
2023/07/27 13:22:59;;;;;;;;;;;23.80;72.00;;;;;;5053705;28;20375;-72
2023/07/27 13:25:25;;;;;;;;;;;23.80;72.50;;;;;;5052642;28;19913;-72
2023/07/27 13:27:50;;;;;;;;;;;23.90;72.60;;;;;;5053404;28;19916;-73
2023/07/27 13:30:16;;;;;;;;;;;23.90;72.20;;;;;;5041442;28;19963;-72
2023/07/27 13:32:41;;;;;;;;;;;23.90;71.90;;;;;;5033429;28;19966;-72
2023/07/27 13:35:07;;;;;;;;;;;23.80;72.00;;;;;;5033231;28;19920;-73
2023/07/27 13:37:33;;;;;;;;;;;23.80;72.50;;;;;;5051093;28;20345;-73
2023/07/27 13:39:58;;;;;;;;;;;23.80;72.80;;;;;;5053624;28;19919;-75
2023/07/27 13:42:24;;;;;;;;;;;23.90;72.40;;;;;;5033728;28;19925;-73
2023/07/27 13:44:50;;;;;;;;;;;24.00;72.40;;;;;;5046123;28;19913;-74
2023/07/27 13:47:16;;;;;;;;;;;24.00;72.40;;;;;;5049659;28;19994;-73
2023/07/27 13:49:42;;;;;;;;;;;24.00;72.10;;;;;;5053266;28;19913;-73
2023/07/27 13:52:07;;;;;;;;;;;24.00;71.60;;;;;;5051390;28;19912;-72
2023/07/27 13:54:33;;;;;;;;;;;23.90;71.40;;;;;;5052056;28;19916;-74
2023/07/27 13:56:58;;;;;;;;;;;23.90;72.00;;;;;;5043120;28;19925;-73
2023/07/27 13:59:24;;;;;;;;;;;23.90;72.20;;;;;;5038129;28;19948;-73
2023/07/27 14:01:49;;;;;;;;;;;24.00;72.50;;;;;;5036033;28;19921;-73
2023/07/27 14:04:14;;;;;;;;;;;24.00;72.80;;;;;;5032790;28;19913;-73
2023/07/27 14:06:40;;;;;;;;;;;24.20;73.10;;;;;;5034211;28;19917;-73
2023/07/27 14:09:05;;;;;;;;;;;24.20;72.90;;;;;;5052721;28;19959;-73
2023/07/27 14:11:34;;;;;;;;;;;24.20;72.90;;;;;;5032471;28;19925;-73